Time;durP1;ratioP1;P1;durP2;ratioP2;P2;SDS_P1;SDS_P2;PMS_P1;PMS_P2;Temp;Humidity;BMP_temperature;BMP_pressure;BME280_temperature;BME280_humidity;BME280_pressure;Samples;Min_cycle;Max_cycle;Signal;HPM_P1;HPM_P2
2022/07/31 00:01:08;;;;;;;6.40;4.88;;;;;;;;;;5078543;28;20243;-57
2022/07/31 00:03:37;;;;;;;5.68;5.18;;;;;;;;;;5075479;27;20241;-53
2022/07/31 00:06:03;;;;;;;7.05;4.78;;;;;;;;;;5083181;27;20234;-53
2022/07/31 00:08:29;;;;;;;5.38;4.68;;;;;;;;;;5079449;28;20231;-53
2022/07/31 00:10:56;;;;;;;5.13;4.65;;;;;;;;;;5080609;27;20234;-54
2022/07/31 00:13:22;;;;;;;5.63;4.95;;;;;;;;;;5076021;27;20233;-53
2022/07/31 00:15:48;;;;;;;5.90;5.30;;;;;;;;;;5080574;27;20239;-52
2022/07/31 00:18:16;;;;;;;7.82;5.20;;;;;;;;;;5080982;27;20238;-52
2022/07/31 00:20:43;;;;;;;5.68;5.00;;;;;;;;;;5077398;27;20234;-53
2022/07/31 00:23:09;;;;;;;5.55;4.93;;;;;;;;;;5077388;27;20235;-54
2022/07/31 00:25:36;;;;;;;5.22;4.72;;;;;;;;;;5079301;27;20769;-51
2022/07/31 00:28:02;;;;;;;5.07;4.57;;;;;;;;;;5084172;27;20227;-53
2022/07/31 00:30:28;;;;;;;7.32;4.85;;;;;;;;;;5077862;27;20247;-53
2022/07/31 00:32:55;;;;;;;6.10;5.57;;;;;;;;;;5074433;27;20257;-52
2022/07/31 00:35:23;;;;;;;6.20;5.53;;;;;;;;;;5081643;27;20238;-53
2022/07/31 00:37:49;;;;;;;7.10;5.85;;;;;;;;;;5070907;28;20309;-52
2022/07/31 00:40:16;;;;;;;6.20;5.70;;;;;;;;;;5079120;27;20227;-52
2022/07/31 00:42:43;;;;;;;7.47;5.75;;;;;;;;;;5081615;27;20724;-53
2022/07/31 00:45:10;;;;;;;6.70;5.22;;;;;;;;;;5076179;27;20241;-53
2022/07/31 00:47:36;;;;;;;7.25;6.55;;;;;;;;;;5083497;27;20227;-53
2022/07/31 00:50:03;;;;;;;7.00;5.85;;;;;;;;;;5072952;27;20505;-53
2022/07/31 00:52:31;;;;;;;8.13;6.85;;;;;;;;;;5080609;27;20227;-52
2022/07/31 00:54:57;;;;;;;8.80;6.50;;;;;;;;;;5074046;27;20238;-52
2022/07/31 00:57:23;;;;;;;9.90;6.50;;;;;;;;;;5076178;28;20233;-54
2022/07/31 00:59:50;;;;;;;6.38;5.60;;;;;;;;;;5076210;27;20235;-54
2022/07/31 01:02:16;;;;;;;7.55;6.30;;;;;;;;;;5076481;27;20235;-53
2022/07/31 01:04:43;;;;;;;6.10;5.50;;;;;;;;;;5081574;27;20234;-52
2022/07/31 01:07:09;;;;;;;6.78;5.68;;;;;;;;;;5081550;28;20890;-51
2022/07/31 01:09:37;;;;;;;6.30;5.45;;;;;;;;;;5081033;27;20227;-52
2022/07/31 01:12:06;;;;;;;5.82;5.32;;;;;;;;;;5073739;27;20313;-53
2022/07/31 01:14:33;;;;;;;5.75;5.30;;;;;;;;;;5076687;28;21000;-53
2022/07/31 01:17:01;;;;;;;14.63;5.07;;;;;;;;;;5083867;27;20233;-52
2022/07/31 01:19:30;;;;;;;6.05;5.47;;;;;;;;;;5072980;27;20249;-52
2022/07/31 01:22:05;;;;;;;6.28;5.15;;;;;;;;;;5077225;27;20235;-53
2022/07/31 01:24:39;;;;;;;6.72;6.07;;;;;;;;;;5085523;27;20685;-53
2022/07/31 01:27:10;;;;;;;5.15;4.65;;;;;;;;;;5074978;27;20692;-53
2022/07/31 01:29:41;;;;;;;5.75;5.07;;;;;;;;;;5078735;28;20227;-53
2022/07/31 01:32:09;;;;;;;6.53;5.57;;;;;;;;;;5064183;28;20322;-54
2022/07/31 01:34:39;;;;;;;6.68;5.40;;;;;;;;;;5078969;27;20325;-52
2022/07/31 01:37:06;;;;;;;7.03;6.18;;;;;;;;;;5081307;27;20236;-52
2022/07/31 01:39:34;;;;;;;10.48;6.22;;;;;;;;;;5081594;27;20233;-53
2022/07/31 01:42:02;;;;;;;6.55;5.47;;;;;;;;;;5077499;27;20646;-52
2022/07/31 01:44:29;;;;;;;5.75;4.93;;;;;;;;;;5080754;27;20604;-52
2022/07/31 01:46:58;;;;;;;5.97;5.47;;;;;;;;;;5072089;27;20602;-52
2022/07/31 01:49:25;;;;;;;6.00;5.47;;;;;;;;;;5067485;27;20694;-52
2022/07/31 01:51:52;;;;;;;6.25;5.43;;;;;;;;;;5071486;27;20261;-53
2022/07/31 01:54:19;;;;;;;6.93;5.32;;;;;;;;;;5075789;27;20228;-52
2022/07/31 01:56:47;;;;;;;7.18;5.75;;;;;;;;;;5082725;27;20231;-51
2022/07/31 01:59:14;;;;;;;6.32;5.72;;;;;;;;;;5086700;27;20238;-52
2022/07/31 02:01:42;;;;;;;8.32;4.82;;;;;;;;;;5077245;27;20240;-53
2022/07/31 02:04:11;;;;;;;5.32;4.82;;;;;;;;;;5072812;27;20230;-53
2022/07/31 02:06:39;;;;;;;6.47;4.80;;;;;;;;;;5078382;28;20237;-53
2022/07/31 02:09:05;;;;;;;5.55;4.50;;;;;;;;;;5073879;27;20357;-53
2022/07/31 02:11:32;;;;;;;5.55;4.47;;;;;;;;;;5071739;27;20250;-52
2022/07/31 02:13:59;;;;;;;5.30;4.80;;;;;;;;;;5078877;27;20246;-52
2022/07/31 02:16:26;;;;;;;5.10;4.60;;;;;;;;;;5076511;27;20238;-52
2022/07/31 02:18:53;;;;;;;5.00;4.57;;;;;;;;;;5087288;27;20234;-52
2022/07/31 02:21:21;;;;;;;5.38;4.95;;;;;;;;;;5072891;28;20239;-52
2022/07/31 02:23:47;;;;;;;6.63;5.03;;;;;;;;;;5076030;27;20237;-52
2022/07/31 02:26:15;;;;;;;6.32;4.55;;;;;;;;;;5081224;27;20238;-54
2022/07/31 02:28:42;;;;;;;6.05;5.22;;;;;;;;;;5093182;27;20237;-53
2022/07/31 02:31:10;;;;;;;5.63;4.72;;;;;;;;;;5073102;27;20231;-55
2022/07/31 02:33:37;;;;;;;5.07;4.57;;;;;;;;;;5084668;28;20303;-53
2022/07/31 02:36:04;;;;;;;5.78;5.20;;;;;;;;;;5071022;28;20231;-53
2022/07/31 02:38:33;;;;;;;5.20;4.82;;;;;;;;;;5085191;28;20778;-52
2022/07/31 02:41:03;;;;;;;6.45;5.43;;;;;;;;;;5075079;27;20269;-52
2022/07/31 02:43:31;;;;;;;6.32;5.72;;;;;;;;;;5085179;27;20723;-52
2022/07/31 02:45:58;;;;;;;5.07;4.55;;;;;;;;;;5088024;27;20243;-52
2022/07/31 02:48:24;;;;;;;5.40;4.90;;;;;;;;;;5085832;27;20878;-52
2022/07/31 02:50:51;;;;;;;5.40;4.90;;;;;;;;;;5077393;27;20239;-52
2022/07/31 02:53:17;;;;;;;5.95;5.30;;;;;;;;;;5082515;27;20231;-52
2022/07/31 02:55:46;;;;;;;5.05;4.63;;;;;;;;;;5086828;27;20227;-52
2022/07/31 02:58:13;;;;;;;6.63;5.97;;;;;;;;;;5093440;27;20722;-53
2022/07/31 03:00:39;;;;;;;5.63;5.07;;;;;;;;;;5087656;27;20881;-52
2022/07/31 03:03:05;;;;;;;5.57;5.10;;;;;;;;;;5085459;28;20227;-51
2022/07/31 03:05:32;;;;;;;6.00;4.85;;;;;;;;;;5073729;27;20237;-53
2022/07/31 03:07:58;;;;;;;5.75;5.18;;;;;;;;;;5088776;27;21019;-52
2022/07/31 03:10:24;;;;;;;5.75;5.20;;;;;;;;;;5078200;27;20243;-53
2022/07/31 03:12:53;;;;;;;5.75;5.00;;;;;;;;;;5081640;27;20238;-53
2022/07/31 03:15:20;;;;;;;5.97;5.38;;;;;;;;;;5085801;27;20260;-52
2022/07/31 03:17:47;;;;;;;5.38;4.88;;;;;;;;;;5081154;27;20255;-53
2022/07/31 03:20:13;;;;;;;5.82;5.20;;;;;;;;;;5085606;28;20245;-53
2022/07/31 03:22:40;;;;;;;7.13;5.82;;;;;;;;;;5089048;27;20241;-53
2022/07/31 03:25:07;;;;;;;6.95;6.30;;;;;;;;;;5077618;27;20235;-52
2022/07/31 03:27:33;;;;;;;6.63;5.18;;;;;;;;;;5083374;28;20275;-52
2022/07/31 03:30:01;;;;;;;5.93;5.30;;;;;;;;;;5082224;27;20246;-52
2022/07/31 03:32:27;;;;;;;8.02;6.07;;;;;;;;;;5088989;28;20230;-52
2022/07/31 03:34:54;;;;;;;6.97;5.80;;;;;;;;;;5083561;27;20234;-53
2022/07/31 03:37:20;;;;;;;7.60;6.90;;;;;;;;;;5087028;27;20329;-52
2022/07/31 03:39:47;;;;;;;7.45;6.65;;;;;;;;;;5081731;27;20231;-53
2022/07/31 03:42:13;;;;;;;7.28;6.60;;;;;;;;;;5081172;27;20337;-53
2022/07/31 03:44:40;;;;;;;7.25;6.45;;;;;;;;;;5087000;27;20287;-53
2022/07/31 03:47:08;;;;;;;5.35;4.85;;;;;;;;;;5081389;28;20293;-53
2022/07/31 03:49:35;;;;;;;7.97;5.55;;;;;;;;;;5083603;28;20226;-52
2022/07/31 03:52:02;;;;;;;6.85;5.43;;;;;;;;;;5081245;27;20238;-52
2022/07/31 03:54:28;;;;;;;6.22;5.72;;;;;;;;;;5082414;27;20234;-52
2022/07/31 03:56:56;;;;;;;6.32;5.40;;;;;;;;;;5087367;27;20231;-52
2022/07/31 03:59:23;;;;;;;8.50;6.32;;;;;;;;;;5089275;27;20239;-52
2022/07/31 04:01:49;;;;;;;5.80;5.30;;;;;;;;;;5081686;27;20668;-52
2022/07/31 04:04:18;;;;;;;6.10;5.60;;;;;;;;;;5078877;27;20237;-52
2022/07/31 04:06:44;;;;;;;6.15;5.57;;;;;;;;;;5084870;27;20230;-52
2022/07/31 04:09:11;;;;;;;5.60;5.13;;;;;;;;;;5082960;27;20245;-52
2022/07/31 04:11:37;;;;;;;6.00;5.35;;;;;;;;;;5083561;27;20314;-53
2022/07/31 04:14:03;;;;;;;5.88;4.93;;;;;;;;;;5085571;27;20719;-52
2022/07/31 04:16:30;;;;;;;6.55;5.25;;;;;;;;;;5084131;27;20760;-52
2022/07/31 04:18:56;;;;;;;8.52;5.15;;;;;;;;;;5084669;28;20231;-52
2022/07/31 04:21:24;;;;;;;6.05;5.55;;;;;;;;;;5078246;27;20231;-52
2022/07/31 04:23:50;;;;;;;5.97;5.38;;;;;;;;;;5082723;27;20223;-53
2022/07/31 04:26:17;;;;;;;5.13;4.72;;;;;;;;;;5086687;27;20226;-52
2022/07/31 04:28:43;;;;;;;5.70;5.30;;;;;;;;;;5082520;27;20333;-52
2022/07/31 04:31:09;;;;;;;4.97;4.50;;;;;;;;;;5083308;27;20242;-54
2022/07/31 04:33:36;;;;;;;5.22;4.72;;;;;;;;;;5084724;27;20851;-53
2022/07/31 04:36:02;;;;;;;6.88;5.45;;;;;;;;;;5082557;27;20241;-52
2022/07/31 04:38:30;;;;;;;6.50;5.90;;;;;;;;;;5082742;27;20226;-53
2022/07/31 04:40:56;;;;;;;6.55;5.95;;;;;;;;;;5075790;28;20265;-52
2022/07/31 04:43:23;;;;;;;5.70;5.15;;;;;;;;;;5082886;27;20237;-53
2022/07/31 04:45:49;;;;;;;5.05;4.55;;;;;;;;;;5085395;28;20227;-53
2022/07/31 04:48:15;;;;;;;5.53;5.05;;;;;;;;;;5083318;27;20234;-53
2022/07/31 04:50:41;;;;;;;6.38;5.80;;;;;;;;;;5081923;27;20235;-53
2022/07/31 04:53:08;;;;;;;6.25;5.65;;;;;;;;;;5082558;27;20260;-53
2022/07/31 04:55:35;;;;;;;5.50;5.00;;;;;;;;;;5090943;27;20234;-52
2022/07/31 04:58:02;;;;;;;5.85;5.30;;;;;;;;;;5083156;27;20284;-53
2022/07/31 05:00:28;;;;;;;6.38;5.75;;;;;;;;;;5077661;27;20303;-53
2022/07/31 05:02:54;;;;;;;6.07;5.47;;;;;;;;;;5084239;27;20242;-52
2022/07/31 05:05:21;;;;;;;6.15;5.72;;;;;;;;;;5082817;27;20615;-53
2022/07/31 05:07:47;;;;;;;5.70;5.07;;;;;;;;;;5082950;27;20226;-52
2022/07/31 05:11:21;;;;;;;5.18;4.78;;;;;;;;;;5079321;27;20231;-52
2022/07/31 05:13:01;;;;;;;5.70;4.80;;;;;;;;;;5079014;27;20569;-55
2022/07/31 05:15:27;;;;;;;5.85;5.22;;;;;;;;;;5088726;27;20234;-52
2022/07/31 05:17:54;;;;;;;4.95;4.45;;;;;;;;;;5086090;27;20241;-52
2022/07/31 05:20:20;;;;;;;6.80;5.47;;;;;;;;;;5078405;27;20231;-53
2022/07/31 05:22:47;;;;;;;4.85;4.45;;;;;;;;;;5084281;27;20254;-52
2022/07/31 05:25:13;;;;;;;4.95;4.47;;;;;;;;;;5085310;28;20239;-53
2022/07/31 05:27:39;;;;;;;5.30;4.80;;;;;;;;;;5086952;27;20245;-53
2022/07/31 05:30:08;;;;;;;6.05;5.25;;;;;;;;;;5078237;27;20231;-52
2022/07/31 05:32:35;;;;;;;4.95;4.43;;;;;;;;;;5086249;27;20291;-53
2022/07/31 05:35:01;;;;;;;4.50;4.18;;;;;;;;;;5083871;27;20249;-53
2022/07/31 05:37:27;;;;;;;4.47;4.07;;;;;;;;;;5084103;27;20229;-52
2022/07/31 05:39:53;;;;;;;5.25;3.92;;;;;;;;;;5082842;27;20239;-53
2022/07/31 05:42:20;;;;;;;4.88;4.30;;;;;;;;;;5082827;27;20287;-53
2022/07/31 05:44:46;;;;;;;4.28;3.58;;;;;;;;;;5086907;28;20249;-54
2022/07/31 05:47:14;;;;;;;5.40;4.18;;;;;;;;;;5080982;27;20234;-54
2022/07/31 05:49:40;;;;;;;4.32;3.95;;;;;;;;;;5082287;27;20274;-52
2022/07/31 05:52:07;;;;;;;5.32;3.95;;;;;;;;;;5082895;27;20239;-53
2022/07/31 05:54:33;;;;;;;4.13;3.75;;;;;;;;;;5085239;27;20234;-53
2022/07/31 05:56:59;;;;;;;3.95;3.63;;;;;;;;;;5081295;27;20576;-53
2022/07/31 05:59:26;;;;;;;5.80;4.10;;;;;;;;;;5081342;28;20234;-52
2022/07/31 06:01:52;;;;;;;4.38;4.07;;;;;;;;;;5076763;27;20230;-52
2022/07/31 06:04:20;;;;;;;5.03;3.60;;;;;;;;;;5083394;27;20728;-54
2022/07/31 06:06:46;;;;;;;5.85;3.90;;;;;;;;;;5075897;27;20231;-52
2022/07/31 06:09:13;;;;;;;8.45;4.55;;;;;;;;;;5084293;27;20241;-53
2022/07/31 06:11:39;;;;;;;5.03;4.60;;;;;;;;;;5072405;27;20416;-54
2022/07/31 06:14:05;;;;;;;6.28;4.47;;;;;;;;;;5076539;27;20227;-54
2022/07/31 06:16:32;;;;;;;4.50;4.10;;;;;;;;;;5080158;27;20237;-52
2022/07/31 06:18:58;;;;;;;3.63;3.33;;;;;;;;;;5108842;27;20774;-52
2022/07/31 06:21:26;;;;;;;3.85;3.45;;;;;;;;;;5084077;27;20230;-52
2022/07/31 06:23:52;;;;;;;3.38;3.05;;;;;;;;;;5089016;27;20230;-53
2022/07/31 06:26:18;;;;;;;4.80;4.40;;;;;;;;;;5096814;27;20727;-53
2022/07/31 06:28:45;;;;;;;4.45;4.05;;;;;;;;;;5084647;28;20229;-52
2022/07/31 06:31:16;;;;;;;5.13;4.63;;;;;;;;;;5078405;27;20261;-52
2022/07/31 06:33:42;;;;;;;4.70;4.25;;;;;;;;;;5081802;27;20254;-54
2022/07/31 06:36:08;;;;;;;5.07;4.10;;;;;;;;;;5088742;27;20230;-54
2022/07/31 06:38:36;;;;;;;5.18;4.70;;;;;;;;;;5088878;27;20245;-52
2022/07/31 06:41:02;;;;;;;4.03;3.63;;;;;;;;;;5084194;27;20634;-53
2022/07/31 06:43:29;;;;;;;4.50;4.15;;;;;;;;;;5085303;27;20226;-54
2022/07/31 06:45:55;;;;;;;5.75;3.97;;;;;;;;;;5089134;28;20484;-53
2022/07/31 06:48:21;;;;;;;5.03;4.15;;;;;;;;;;5082824;27;20242;-53
2022/07/31 06:50:48;;;;;;;4.65;4.25;;;;;;;;;;5082085;27;20716;-52
2022/07/31 06:53:14;;;;;;;5.93;5.45;;;;;;;;;;5082358;27;20241;-52
2022/07/31 06:55:42;;;;;;;4.55;4.18;;;;;;;;;;5084683;27;20234;-53
2022/07/31 06:58:08;;;;;;;4.88;4.35;;;;;;;;;;5090512;28;20230;-53
2022/07/31 07:00:35;;;;;;;4.00;3.60;;;;;;;;;;5082549;28;20231;-53
2022/07/31 07:03:01;;;;;;;6.07;5.45;;;;;;;;;;5086055;27;20244;-53
2022/07/31 07:05:30;;;;;;;4.50;4.20;;;;;;;;;;5089456;28;20230;-53
2022/07/31 07:07:56;;;;;;;5.43;4.53;;;;;;;;;;5087875;27;20227;-52
2022/07/31 07:10:23;;;;;;;5.18;4.78;;;;;;;;;;5080940;27;20238;-52
2022/07/31 07:12:51;;;;;;;5.00;3.80;;;;;;;;;;5086093;27;20610;-51
2022/07/31 07:15:17;;;;;;;5.22;4.82;;;;;;;;;;5086295;28;20269;-54
2022/07/31 07:17:43;;;;;;;5.55;5.03;;;;;;;;;;5088327;27;20234;-53
2022/07/31 07:20:10;;;;;;;5.30;4.80;;;;;;;;;;5086281;27;20239;-52
2022/07/31 07:22:36;;;;;;;6.82;4.90;;;;;;;;;;5086158;27;20233;-53
2022/07/31 07:25:03;;;;;;;7.47;5.18;;;;;;;;;;5088292;28;20739;-53
2022/07/31 07:27:29;;;;;;;5.75;5.20;;;;;;;;;;5087502;27;20317;-52
2022/07/31 07:29:57;;;;;;;5.50;5.00;;;;;;;;;;5079273;27;20223;-53
2022/07/31 07:32:24;;;;;;;3.80;3.60;;;;;;;;;;5081502;27;20258;-54
2022/07/31 07:34:50;;;;;;;5.35;4.60;;;;;;;;;;5085905;27;20276;-51
2022/07/31 07:37:16;;;;;;;6.47;5.88;;;;;;;;;;5085379;28;20242;-53
2022/07/31 07:39:43;;;;;;;8.48;5.43;;;;;;;;;;5084283;27;20230;-54
2022/07/31 07:42:10;;;;;;;5.47;5.07;;;;;;;;;;5079867;27;20238;-53
2022/07/31 07:44:36;;;;;;;4.75;4.28;;;;;;;;;;5083879;27;20769;-53
2022/07/31 07:47:04;;;;;;;5.28;4.78;;;;;;;;;;5081872;27;20326;-53
2022/07/31 07:49:30;;;;;;;5.80;5.30;;;;;;;;;;5081219;27;20226;-53
2022/07/31 07:51:56;;;;;;;4.45;4.15;;;;;;;;;;5086369;27;20751;-52
2022/07/31 07:54:23;;;;;;;4.93;4.53;;;;;;;;;;5084105;28;20227;-53
2022/07/31 07:56:50;;;;;;;4.20;3.90;;;;;;;;;;5090680;28;20860;-53
2022/07/31 07:59:16;;;;;;;5.10;4.63;;;;;;;;;;5082097;27;20617;-53
2022/07/31 08:01:43;;;;;;;6.07;4.57;;;;;;;;;;5082836;27;20704;-54
2022/07/31 08:04:10;;;;;;;4.95;4.53;;;;;;;;;;5087211;27;20299;-52
2022/07/31 08:06:37;;;;;;;4.72;4.40;;;;;;;;;;5078716;28;20233;-52
2022/07/31 08:09:03;;;;;;;4.50;4.10;;;;;;;;;;5082159;27;20278;-54
2022/07/31 08:11:30;;;;;;;4.65;4.25;;;;;;;;;;5077924;27;20241;-53
2022/07/31 08:13:56;;;;;;;5.00;4.18;;;;;;;;;;5086438;27;20957;-53
2022/07/31 08:16:23;;;;;;;4.80;4.40;;;;;;;;;;5081362;27;20231;-53
2022/07/31 08:18:50;;;;;;;4.10;3.78;;;;;;;;;;5084823;27;20614;-53
2022/07/31 08:21:17;;;;;;;4.70;3.42;;;;;;;;;;5083592;27;20254;-54
2022/07/31 08:23:44;;;;;;;4.82;4.43;;;;;;;;;;5087239;27;20320;-53
2022/07/31 08:26:10;;;;;;;4.85;4.40;;;;;;;;;;5079664;28;20611;-51
2022/07/31 08:28:37;;;;;;;3.88;3.33;;;;;;;;;;5081487;27;20234;-53
2022/07/31 08:31:03;;;;;;;3.72;3.42;;;;;;;;;;5085951;27;20648;-52
2022/07/31 08:33:31;;;;;;;3.83;3.55;;;;;;;;;;5081920;27;20227;-53
2022/07/31 08:35:58;;;;;;;4.07;3.60;;;;;;;;;;5080698;28;20243;-53
2022/07/31 08:38:28;;;;;;;4.22;3.85;;;;;;;;;;5083144;27;20238;-53
2022/07/31 08:40:54;;;;;;;4.15;3.85;;;;;;;;;;5078486;27;20315;-54
2022/07/31 08:43:21;;;;;;;3.85;3.60;;;;;;;;;;5081667;27;20306;-53
2022/07/31 08:45:47;;;;;;;3.85;3.55;;;;;;;;;;5086345;27;20226;-53
2022/07/31 08:48:14;;;;;;;4.22;3.72;;;;;;;;;;5082076;27;20230;-54
2022/07/31 08:50:43;;;;;;;5.80;5.25;;;;;;;;;;5083951;27;20230;-52
2022/07/31 08:53:11;;;;;;;3.90;3.60;;;;;;;;;;5082574;27;20317;-52
2022/07/31 08:55:39;;;;;;;4.10;3.65;;;;;;;;;;5084334;27;20230;-52
2022/07/31 08:58:05;;;;;;;3.45;3.25;;;;;;;;;;5086051;27;20222;-53
2022/07/31 09:00:34;;;;;;;3.45;3.15;;;;;;;;;;5075817;27;20223;-53
2022/07/31 09:03:01;;;;;;;4.20;3.80;;;;;;;;;;5085933;27;20237;-52
2022/07/31 09:05:27;;;;;;;4.13;3.83;;;;;;;;;;5078467;27;20231;-54
2022/07/31 09:07:54;;;;;;;4.00;3.65;;;;;;;;;;5079154;27;20239;-54
2022/07/31 09:10:21;;;;;;;3.63;3.40;;;;;;;;;;5079736;27;20238;-53
2022/07/31 09:12:48;;;;;;;3.78;3.47;;;;;;;;;;5071737;27;20241;-53
2022/07/31 09:15:25;;;;;;;3.97;3.67;;;;;;;;;;5079628;27;20235;-54
2022/07/31 09:17:52;;;;;;;3.47;3.10;;;;;;;;;;5086612;28;20238;-53
2022/07/31 09:20:19;;;;;;;4.00;3.38;;;;;;;;;;5080696;27;20312;-52
2022/07/31 09:22:46;;;;;;;3.65;3.35;;;;;;;;;;5085631;27;20242;-52
2022/07/31 09:25:15;;;;;;;5.30;3.42;;;;;;;;;;5078589;28;20238;-54
2022/07/31 09:27:42;;;;;;;3.50;3.20;;;;;;;;;;5065657;28;20585;-51
2022/07/31 09:30:10;;;;;;;3.47;3.28;;;;;;;;;;5082259;27;20234;-53
2022/07/31 09:32:37;;;;;;;3.42;3.20;;;;;;;;;;5086046;27;20425;-51
2022/07/31 09:35:07;;;;;;;4.85;3.28;;;;;;;;;;5086015;28;20234;-53
2022/07/31 09:37:33;;;;;;;3.80;3.33;;;;;;;;;;5095305;27;20234;-53
2022/07/31 09:40:00;;;;;;;4.20;3.55;;;;;;;;;;5077619;27;20242;-53
2022/07/31 09:42:34;;;;;;;3.17;2.90;;;;;;;;;;5080079;27;20249;-53
2022/07/31 09:45:01;;;;;;;3.38;3.08;;;;;;;;;;5078084;27;20743;-53
2022/07/31 09:47:29;;;;;;;3.80;3.33;;;;;;;;;;5067406;27;20238;-54
2022/07/31 09:49:58;;;;;;;3.42;3.13;;;;;;;;;;5080214;27;20234;-54
2022/07/31 09:52:24;;;;;;;4.45;3.50;;;;;;;;;;5076217;27;20230;-53
2022/07/31 09:55:00;;;;;;;3.80;3.50;;;;;;;;;;5077402;27;20228;-53
2022/07/31 09:57:26;;;;;;;5.38;2.63;;;;;;;;;;5067970;27;20229;-53
2022/07/31 09:59:53;;;;;;;3.92;3.55;;;;;;;;;;5074763;27;20258;-53
2022/07/31 10:02:19;;;;;;;3.20;2.90;;;;;;;;;;5069884;27;20238;-54
2022/07/31 10:04:48;;;;;;;4.20;3.03;;;;;;;;;;5076053;27;20230;-54
2022/07/31 10:07:15;;;;;;;3.75;3.55;;;;;;;;;;5063643;27;20242;-53
2022/07/31 10:09:42;;;;;;;3.45;3.00;;;;;;;;;;5076969;28;20233;-52
2022/07/31 10:12:12;;;;;;;4.05;2.92;;;;;;;;;;5074808;27;20779;-54
2022/07/31 10:14:40;;;;;;;3.17;2.95;;;;;;;;;;5077544;27;20257;-53
2022/07/31 10:17:07;;;;;;;5.05;3.15;;;;;;;;;;5070888;27;20440;-54
2022/07/31 10:19:36;;;;;;;3.80;3.50;;;;;;;;;;5063849;27;20235;-54
2022/07/31 10:22:04;;;;;;;3.42;3.20;;;;;;;;;;5071825;28;20238;-53
2022/07/31 10:24:31;;;;;;;3.78;3.15;;;;;;;;;;5077166;27;20288;-52
2022/07/31 10:26:59;;;;;;;3.40;3.13;;;;;;;;;;5078485;27;20242;-53
2022/07/31 10:29:25;;;;;;;3.22;2.92;;;;;;;;;;5073376;27;20242;-53
2022/07/31 10:31:52;;;;;;;8.60;3.40;;;;;;;;;;5072495;27;20234;-53
2022/07/31 10:34:18;;;;;;;2.95;2.75;;;;;;;;;;5075165;28;20231;-52
2022/07/31 10:36:46;;;;;;;3.67;3.38;;;;;;;;;;5072664;27;20230;-53
2022/07/31 10:39:17;;;;;;;3.25;3.00;;;;;;;;;;5067409;28;20242;-54
2022/07/31 10:41:46;;;;;;;4.00;3.22;;;;;;;;;;5064190;27;20947;-53
2022/07/31 10:44:16;;;;;;;3.40;3.10;;;;;;;;;;5077891;28;20586;-53
2022/07/31 10:46:43;;;;;;;3.45;2.78;;;;;;;;;;5063844;27;20239;-53
2022/07/31 10:49:09;;;;;;;3.20;2.90;;;;;;;;;;5061550;27;20223;-53
2022/07/31 10:51:45;;;;;;;4.03;3.67;;;;;;;;;;5072862;27;20814;-55
2022/07/31 10:54:13;;;;;;;4.45;4.15;;;;;;;;;;5076089;27;20230;-53
2022/07/31 10:56:44;;;;;;;5.22;4.80;;;;;;;;;;5064349;27;20246;-53
2022/07/31 10:59:11;;;;;;;4.40;3.97;;;;;;;;;;5073663;27;20227;-53
2022/07/31 11:01:44;;;;;;;3.97;3.58;;;;;;;;;;5076678;27;20235;-53
2022/07/31 11:04:11;;;;;;;4.53;2.97;;;;;;;;;;5078403;27;20238;-52
2022/07/31 11:06:38;;;;;;;4.07;2.72;;;;;;;;;;5085678;27;20758;-53
2022/07/31 11:09:05;;;;;;;3.47;3.15;;;;;;;;;;5085525;27;20287;-52
2022/07/31 11:11:32;;;;;;;4.57;3.25;;;;;;;;;;5076037;27;20732;-52
2022/07/31 11:14:00;;;;;;;3.47;3.13;;;;;;;;;;5079175;27;20732;-52
2022/07/31 11:16:26;;;;;;;4.50;3.55;;;;;;;;;;5078107;27;20239;-53
2022/07/31 11:18:56;;;;;;;3.72;2.63;;;;;;;;;;5076711;27;20239;-51
2022/07/31 11:21:30;;;;;;;4.65;3.28;;;;;;;;;;5081273;27;20262;-53
2022/07/31 11:23:57;;;;;;;3.40;3.10;;;;;;;;;;5069790;28;20227;-52
2022/07/31 11:26:23;;;;;;;2.72;2.42;;;;;;;;;;5081950;27;20239;-52
2022/07/31 11:28:50;;;;;;;5.22;2.67;;;;;;;;;;5074062;27;20750;-53
2022/07/31 11:31:17;;;;;;;2.80;2.60;;;;;;;;;;5082879;27;20739;-53
2022/07/31 11:33:45;;;;;;;4.03;2.45;;;;;;;;;;5077557;27;20234;-54
2022/07/31 11:36:13;;;;;;;7.07;2.60;;;;;;;;;;5076753;27;20233;-53
2022/07/31 11:38:40;;;;;;;3.55;3.03;;;;;;;;;;5076454;27;20239;-53
2022/07/31 11:41:07;;;;;;;3.20;2.90;;;;;;;;;;5074721;27;20711;-53
2022/07/31 11:43:36;;;;;;;3.65;3.30;;;;;;;;;;5082505;27;20222;-54
2022/07/31 11:46:02;;;;;;;4.90;3.08;;;;;;;;;;5082573;27;20235;-52
2022/07/31 11:48:31;;;;;;;6.82;3.55;;;;;;;;;;5085861;27;20583;-53
2022/07/31 11:50:58;;;;;;;3.88;3.58;;;;;;;;;;5076323;27;20739;-53
2022/07/31 11:53:24;;;;;;;3.90;3.20;;;;;;;;;;5080745;27;20348;-52
2022/07/31 11:55:53;;;;;;;3.85;3.10;;;;;;;;;;5075813;27;20222;-53
2022/07/31 11:58:20;;;;;;;3.78;2.90;;;;;;;;;;5080153;27;20237;-54
2022/07/31 12:00:50;;;;;;;5.20;3.00;;;;;;;;;;5079954;28;20234;-53
2022/07/31 12:03:17;;;;;;;3.15;2.78;;;;;;;;;;5084476;27;20237;-55
2022/07/31 12:05:45;;;;;;;3.65;3.35;;;;;;;;;;5081145;27;20223;-54
2022/07/31 12:08:12;;;;;;;2.75;2.55;;;;;;;;;;5080858;27;20719;-53
2022/07/31 12:10:39;;;;;;;3.58;3.25;;;;;;;;;;5086309;27;20291;-53
2022/07/31 12:13:09;;;;;;;3.40;3.10;;;;;;;;;;5067674;27;20317;-53
2022/07/31 12:15:35;;;;;;;3.45;3.10;;;;;;;;;;5076172;27;20253;-53
2022/07/31 12:18:02;;;;;;;5.88;3.05;;;;;;;;;;5077934;27;20234;-52
2022/07/31 12:20:29;;;;;;;2.55;2.35;;;;;;;;;;5076968;27;20311;-54
2022/07/31 12:22:59;;;;;;;3.15;2.85;;;;;;;;;;5080125;27;20234;-54
2022/07/31 12:25:25;;;;;;;4.00;2.70;;;;;;;;;;5078588;27;20260;-52
2022/07/31 12:27:53;;;;;;;4.30;2.80;;;;;;;;;;5082326;27;20235;-52
2022/07/31 12:30:21;;;;;;;2.70;2.60;;;;;;;;;;5079338;27;20254;-53
2022/07/31 12:32:47;;;;;;;3.88;3.58;;;;;;;;;;5084220;27;20230;-54
2022/07/31 12:35:14;;;;;;;5.75;4.78;;;;;;;;;;5080504;27;20234;-54
2022/07/31 12:37:44;;;;;;;3.58;3.28;;;;;;;;;;5081269;27;20238;-53
2022/07/31 12:40:22;;;;;;;3.35;3.05;;;;;;;;;;5077726;27;20313;-53
2022/07/31 12:42:49;;;;;;;4.40;3.90;;;;;;;;;;5078175;27;20230;-52
2022/07/31 12:45:15;;;;;;;4.85;3.50;;;;;;;;;;5085987;27;20233;-52
2022/07/31 12:47:41;;;;;;;3.08;2.50;;;;;;;;;;5078484;27;20238;-53
2022/07/31 12:50:08;;;;;;;5.00;2.78;;;;;;;;;;5077610;27;20234;-52
2022/07/31 12:52:36;;;;;;;2.78;2.08;;;;;;;;;;5077397;27;20288;-52
2022/07/31 12:55:03;;;;;;;4.55;3.45;;;;;;;;;;5075074;27;20288;-53
2022/07/31 12:57:30;;;;;;;3.85;2.40;;;;;;;;;;5081158;27;20234;-53
2022/07/31 12:59:57;;;;;;;4.47;3.63;;;;;;;;;;5078165;27;20245;-52
2022/07/31 13:02:23;;;;;;;2.97;2.78;;;;;;;;;;5079797;27;20904;-53
2022/07/31 13:04:49;;;;;;;3.85;2.70;;;;;;;;;;5076398;27;20230;-53
2022/07/31 13:07:16;;;;;;;4.38;2.92;;;;;;;;;;5075045;27;20231;-51
2022/07/31 13:09:42;;;;;;;2.67;2.10;;;;;;;;;;5079113;27;20652;-52
2022/07/31 13:12:09;;;;;;;3.60;2.60;;;;;;;;;;5071170;28;20249;-52
2022/07/31 13:14:37;;;;;;;3.63;2.38;;;;;;;;;;5076988;27;20305;-53
2022/07/31 13:17:04;;;;;;;2.78;2.58;;;;;;;;;;5081289;27;20230;-54
2022/07/31 13:19:30;;;;;;;2.05;1.90;;;;;;;;;;5075824;27;20840;-52
2022/07/31 13:21:57;;;;;;;3.75;2.42;;;;;;;;;;5079156;27;20314;-52
2022/07/31 13:24:23;;;;;;;3.42;2.22;;;;;;;;;;5083452;27;20238;-52
2022/07/31 13:26:50;;;;;;;3.33;2.15;;;;;;;;;;5082656;27;20227;-51
2022/07/31 13:29:16;;;;;;;2.60;2.40;;;;;;;;;;5080255;27;20242;-52
2022/07/31 13:31:44;;;;;;;9.18;5.80;;;;;;;;;;5069030;27;20253;-52
2022/07/31 13:34:10;;;;;;;3.45;2.70;;;;;;;;;;5080605;27;20233;-52
2022/07/31 13:36:37;;;;;;;2.30;2.10;;;;;;;;;;5078441;28;20245;-52
2022/07/31 13:39:03;;;;;;;3.05;2.38;;;;;;;;;;5078059;28;20262;-53
2022/07/31 13:41:33;;;;;;;2.38;2.17;;;;;;;;;;5077166;28;20234;-52
2022/07/31 13:43:59;;;;;;;3.40;2.35;;;;;;;;;;5080908;27;20241;-52
2022/07/31 13:46:26;;;;;;;2.67;2.30;;;;;;;;;;5074410;27;20234;-54
2022/07/31 13:48:54;;;;;;;3.95;2.20;;;;;;;;;;5071001;27;20239;-52
2022/07/31 13:51:21;;;;;;;2.30;2.17;;;;;;;;;;5071211;27;20258;-51
2022/07/31 13:53:48;;;;;;;2.65;2.45;;;;;;;;;;5082433;27;20231;-52
2022/07/31 13:56:14;;;;;;;2.22;2.03;;;;;;;;;;5076988;27;20319;-52
2022/07/31 13:58:40;;;;;;;3.15;2.22;;;;;;;;;;5076784;27;20234;-53
2022/07/31 14:01:07;;;;;;;2.70;2.50;;;;;;;;;;5077042;27;20744;-52
2022/07/31 14:03:33;;;;;;;2.40;2.20;;;;;;;;;;5069253;27;20234;-53
2022/07/31 14:06:01;;;;;;;3.80;2.85;;;;;;;;;;5073845;27;20234;-52
2022/07/31 14:08:28;;;;;;;2.40;2.20;;;;;;;;;;5073285;27;20226;-53
2022/07/31 14:10:54;;;;;;;3.25;2.38;;;;;;;;;;5077870;27;20254;-53
2022/07/31 14:13:21;;;;;;;2.60;2.40;;;;;;;;;;5074871;27;20242;-53
2022/07/31 14:15:48;;;;;;;2.88;2.53;;;;;;;;;;5081503;27;20241;-53
2022/07/31 14:18:14;;;;;;;3.00;2.17;;;;;;;;;;5084265;27;20240;-52
2022/07/31 14:20:40;;;;;;;2.88;2.67;;;;;;;;;;5086711;27;20244;-52
2022/07/31 14:23:08;;;;;;;3.60;2.10;;;;;;;;;;5081166;27;20244;-52
2022/07/31 14:25:35;;;;;;;2.17;1.98;;;;;;;;;;5074681;27;20708;-52
2022/07/31 14:28:02;;;;;;;3.42;2.22;;;;;;;;;;5083477;27;20238;-52
2022/07/31 14:30:28;;;;;;;2.10;1.90;;;;;;;;;;5087704;27;20229;-52
2022/07/31 14:32:55;;;;;;;3.08;2.00;;;;;;;;;;5090535;27;20235;-53
2022/07/31 14:35:21;;;;;;;1.90;1.73;;;;;;;;;;5084116;27;20674;-53
2022/07/31 14:37:48;;;;;;;2.28;1.70;;;;;;;;;;5072705;27;20246;-52
2022/07/31 14:40:16;;;;;;;4.18;3.15;;;;;;;;;;5087385;27;20264;-52
2022/07/31 14:42:42;;;;;;;2.00;1.90;;;;;;;;;;5089146;27;20241;-52